Luck, North Carolina
Current Conditions -  °F | °C
As of 9:54 PM on Friday 21 Nov 2014 (Local Time) from KAVL Reporting Station
Clear Clear  
Wind Chill: 31°   Ceiling: Unl
Heat Index: 31°   Visibility: 10mi
Dew Point: 19°   Wind: 0mph
Humidity: 61%   Direction: NA
Pressure: 30.46"   Gusts: NA
Location:  35.8037°N, 82.868°W
Report Text: KAVL 220254Z 00000KT 10SM CLR M01/M07 A3046 RMK AO2 SLP326 T10061072 52015
Loading
Personal Weather Stations






























Interactive Weather Map New forecast layout! Learn more

10-Day Weather Forecast

Advertisements
Track Severe Weather on mobile